createdAt,value
2018-07-15T00:00:07.862Z,12.40
2018-07-15T00:01:08.106Z,13.10
2018-07-15T00:02:08.350Z,11.80
2018-07-15T00:03:08.600Z,12.50
2018-07-15T00:04:08.840Z,11.60
2018-07-15T00:05:09.086Z,11.80
2018-07-15T00:06:09.329Z,11.60
2018-07-15T00:07:09.575Z,12.40
2018-07-15T00:08:09.820Z,11.90
2018-07-15T00:09:10.063Z,11.90
2018-07-15T00:10:10.308Z,11.30
2018-07-15T00:11:10.549Z,12.50
2018-07-15T00:12:10.792Z,12.60
2018-07-15T00:13:11.037Z,12.60
2018-07-15T00:14:11.283Z,11.40
2018-07-15T00:15:11.524Z,11.50
2018-07-15T00:16:11.769Z,11.70
2018-07-15T00:17:12.016Z,12.50
2018-07-15T00:18:12.258Z,12.80
2018-07-15T00:19:12.501Z,11.80
2018-07-15T00:20:12.747Z,12.80
2018-07-15T00:21:12.991Z,14.20
2018-07-15T00:22:13.234Z,12.20
2018-07-15T00:23:13.478Z,12.80
2018-07-15T00:24:13.722Z,12.30
2018-07-15T00:25:13.969Z,11.90
2018-07-15T00:26:14.209Z,12.10
2018-07-15T00:27:14.454Z,13.70
2018-07-15T00:28:14.697Z,12.20
2018-07-15T00:29:14.943Z,12.30
2018-07-15T00:30:15.185Z,12.20
2018-07-15T00:31:15.427Z,12.00
2018-07-15T00:32:15.672Z,12.40
2018-07-15T00:33:15.915Z,12.50
2018-07-15T00:34:16.157Z,11.90
2018-07-15T00:35:16.401Z,12.50
2018-07-15T00:36:16.644Z,11.70
2018-07-15T00:37:16.887Z,13.20
2018-07-15T00:38:17.132Z,12.60
2018-07-15T00:39:17.377Z,14.70
2018-07-15T00:40:17.620Z,14.90
2018-07-15T00:41:17.863Z,12.70
2018-07-15T00:42:18.109Z,13.00
2018-07-15T00:43:18.353Z,13.00
2018-07-15T00:44:18.594Z,13.60
2018-07-15T00:45:18.839Z,12.50
2018-07-15T00:46:19.083Z,13.20
2018-07-15T00:47:19.326Z,12.80
2018-07-15T00:48:19.571Z,13.90
2018-07-15T00:49:19.814Z,13.20
2018-07-15T00:50:20.058Z,13.10
2018-07-15T00:51:20.302Z,16.40
2018-07-15T00:52:20.545Z,13.00
2018-07-15T00:53:20.790Z,13.80
2018-07-15T00:54:21.034Z,13.70
2018-07-15T00:55:21.299Z,14.70
2018-07-15T00:56:21.524Z,14.10
2018-07-15T00:57:21.764Z,13.80
2018-07-15T00:58:22.009Z,15.30
2018-07-15T00:59:22.251Z,14.20
2018-07-15T01:00:22.497Z,13.60
2018-07-15T01:01:22.743Z,13.90
2018-07-15T01:02:22.986Z,13.70
2018-07-15T01:03:23.225Z,14.10
2018-07-15T01:04:23.469Z,13.50
2018-07-15T01:05:23.713Z,13.10
2018-07-15T01:06:23.956Z,13.70
2018-07-15T01:07:24.198Z,14.60
2018-07-15T01:08:24.441Z,13.90
2018-07-15T01:09:24.681Z,14.00
2018-07-15T01:10:24.925Z,14.90
2018-07-15T01:11:25.171Z,14.20
2018-07-15T01:12:25.413Z,15.70
2018-07-15T01:13:25.656Z,14.40
2018-07-15T01:14:25.898Z,14.70
2018-07-15T01:15:26.142Z,14.10
2018-07-15T01:16:26.386Z,14.60
2018-07-15T01:17:26.629Z,15.20
2018-07-15T01:18:26.871Z,14.40
2018-07-15T01:19:27.116Z,15.00
2018-07-15T01:20:27.359Z,14.00
2018-07-15T01:21:27.603Z,18.00
2018-07-15T01:22:27.846Z,14.10
2018-07-15T01:23:28.087Z,14.80
2018-07-15T01:24:28.330Z,14.30
2018-07-15T01:25:28.573Z,14.10
2018-07-15T01:26:28.816Z,14.40
2018-07-15T01:27:29.056Z,14.60
2018-07-15T01:28:29.302Z,15.70
2018-07-15T01:29:29.544Z,14.40
2018-07-15T01:30:29.788Z,14.30
2018-07-15T01:31:30.032Z,15.10
2018-07-15T01:32:30.275Z,15.60
2018-07-15T01:33:30.517Z,15.60
2018-07-15T01:34:30.761Z,15.50
2018-07-15T01:35:31.005Z,15.20
2018-07-15T01:36:31.250Z,15.10
2018-07-15T01:37:31.491Z,16.00
2018-07-15T01:38:31.734Z,15.50
2018-07-15T01:39:31.976Z,15.00
2018-07-15T01:40:32.219Z,14.80
2018-07-15T01:41:32.462Z,15.20
2018-07-15T01:42:32.706Z,15.50
2018-07-15T01:43:32.948Z,15.20
2018-07-15T01:44:33.189Z,15.00
2018-07-15T01:45:33.433Z,14.90
2018-07-15T01:46:33.676Z,15.40
2018-07-15T01:47:33.918Z,15.50
2018-07-15T01:48:34.162Z,16.10
2018-07-15T01:49:34.406Z,15.00
2018-07-15T01:50:34.650Z,15.30
2018-07-15T01:51:34.891Z,15.50
2018-07-15T01:52:35.153Z,15.10
2018-07-15T01:53:35.376Z,15.00
2018-07-15T01:54:35.618Z,15.00
2018-07-15T01:55:35.879Z,16.30
2018-07-15T01:56:36.104Z,14.90
2018-07-15T01:57:36.348Z,15.40
2018-07-15T01:58:36.590Z,14.40
2018-07-15T01:59:36.831Z,15.80
2018-07-15T02:00:37.075Z,14.70
2018-07-15T02:01:37.318Z,15.30
2018-07-15T02:02:37.560Z,15.10
2018-07-15T02:03:37.804Z,16.40
2018-07-15T02:04:38.047Z,16.40
2018-07-15T02:05:38.289Z,14.90
2018-07-15T02:06:38.532Z,15.50
2018-07-15T02:07:38.775Z,15.40
2018-07-15T02:08:39.017Z,16.00
2018-07-15T02:09:39.260Z,14.40
2018-07-15T02:10:39.502Z,15.40
2018-07-15T02:11:39.745Z,14.90
2018-07-15T02:12:39.990Z,15.40
2018-07-15T02:13:40.231Z,15.80
2018-07-15T02:14:40.474Z,15.90
2018-07-15T02:15:40.716Z,15.00
2018-07-15T02:16:40.958Z,15.60
2018-07-15T02:17:41.203Z,15.50
2018-07-15T02:18:41.444Z,15.70
2018-07-15T02:19:41.684Z,16.00
2018-07-15T02:20:41.928Z,15.80
2018-07-15T02:21:42.168Z,16.30
2018-07-15T02:22:42.411Z,16.20
2018-07-15T02:23:42.655Z,16.50
2018-07-15T02:24:42.897Z,16.00
2018-07-15T02:25:43.140Z,16.40
2018-07-15T02:26:43.381Z,16.70
2018-07-15T02:27:43.625Z,16.90
2018-07-15T02:28:43.868Z,16.30
2018-07-15T02:29:44.109Z,17.00
2018-07-15T02:30:44.354Z,16.70
2018-07-15T02:31:44.595Z,16.80
2018-07-15T02:32:44.837Z,17.70
2018-07-15T02:33:45.078Z,17.40
2018-07-15T02:34:45.322Z,17.40
2018-07-15T02:35:45.562Z,16.70
2018-07-15T02:36:45.882Z,17.70
2018-07-15T02:37:46.047Z,16.50
2018-07-15T02:38:46.290Z,17.60
2018-07-15T02:39:46.531Z,17.40
2018-07-15T02:40:46.774Z,17.50
2018-07-15T02:41:47.016Z,16.70
2018-07-15T02:42:47.259Z,17.30
2018-07-15T02:43:47.501Z,17.90
2018-07-15T02:44:47.748Z,17.70
2018-07-15T02:45:47.985Z,19.30
2018-07-15T02:46:48.230Z,17.10
2018-07-15T02:47:48.472Z,17.70
2018-07-15T02:48:48.714Z,17.20
2018-07-15T02:49:48.959Z,17.50
2018-07-15T02:50:49.202Z,17.60
2018-07-15T02:51:49.443Z,17.20
2018-07-15T02:52:49.685Z,17.60
2018-07-15T02:53:49.931Z,19.10
2018-07-15T02:54:50.171Z,18.60
2018-07-15T02:55:50.414Z,16.60
2018-07-15T02:56:50.664Z,18.10
2018-07-15T02:57:50.898Z,17.50
2018-07-15T02:58:51.155Z,18.30
2018-07-15T02:59:51.384Z,19.10
2018-07-15T03:00:51.628Z,18.40
2018-07-15T03:01:51.869Z,17.30
2018-07-15T03:02:52.114Z,18.50
2018-07-15T03:03:52.356Z,18.70
2018-07-15T03:04:52.598Z,19.00
2018-07-15T03:05:52.842Z,18.70
2018-07-15T03:06:53.084Z,19.10
2018-07-15T03:07:53.325Z,20.30
2018-07-15T03:08:53.567Z,18.50
2018-07-15T03:09:53.808Z,18.40
2018-07-15T03:10:54.051Z,18.70
2018-07-15T03:11:54.292Z,19.00
2018-07-15T03:12:54.537Z,18.30
2018-07-15T03:13:54.777Z,19.40
2018-07-15T03:14:55.020Z,18.60
2018-07-15T03:15:55.262Z,19.20
2018-07-15T03:16:55.505Z,18.90
2018-07-15T03:17:55.749Z,18.80
2018-07-15T03:18:55.991Z,18.40
2018-07-15T03:19:56.233Z,18.00
2018-07-15T03:20:56.476Z,18.60
2018-07-15T03:21:56.717Z,18.80
2018-07-15T03:22:56.960Z,18.40
2018-07-15T03:23:57.202Z,18.70
2018-07-15T03:24:57.445Z,19.50
2018-07-15T03:25:57.689Z,18.20
2018-07-15T03:26:57.930Z,19.80
2018-07-15T03:27:58.172Z,20.30
2018-07-15T03:28:58.418Z,18.90
2018-07-15T03:29:58.659Z,20.40
2018-07-15T03:30:58.904Z,19.80
2018-07-15T03:31:59.158Z,20.00
2018-07-15T03:32:59.389Z,19.80
2018-07-15T03:33:59.653Z,21.60
2018-07-15T03:34:59.877Z,19.70
2018-07-15T03:36:00.120Z,19.50
2018-07-15T03:37:00.363Z,20.40
2018-07-15T03:38:00.604Z,23.30
2018-07-15T03:39:00.846Z,20.10
2018-07-15T03:40:01.093Z,21.10
2018-07-15T03:41:01.330Z,20.40
2018-07-15T03:42:01.574Z,20.70
2018-07-15T03:43:01.815Z,20.10
2018-07-15T03:44:02.058Z,19.30
2018-07-15T03:45:02.299Z,20.00
2018-07-15T03:46:02.542Z,20.50
2018-07-15T03:47:02.784Z,19.50
2018-07-15T03:48:03.028Z,21.10
2018-07-15T03:49:03.269Z,19.90
2018-07-15T03:50:03.510Z,20.10
2018-07-15T03:51:03.753Z,19.90
2018-07-15T03:52:03.996Z,20.20
2018-07-15T03:53:04.238Z,20.10
2018-07-15T03:54:04.478Z,20.50
2018-07-15T03:55:04.719Z,19.50
2018-07-15T03:56:04.963Z,19.10
2018-07-15T03:57:05.207Z,19.40
2018-07-15T03:58:05.447Z,19.00
2018-07-15T03:59:05.689Z,18.60
2018-07-15T04:00:05.930Z,18.50
2018-07-15T04:01:06.175Z,19.80
2018-07-15T04:02:06.414Z,18.50
2018-07-15T04:03:06.657Z,19.60
2018-07-15T04:04:06.899Z,18.00
2018-07-15T04:05:07.142Z,18.80
2018-07-15T04:06:07.385Z,19.90
2018-07-15T04:07:07.629Z,18.70
2018-07-15T04:08:07.873Z,18.30
2018-07-15T04:09:08.115Z,18.50
2018-07-15T04:10:08.357Z,18.40
2018-07-15T04:11:08.599Z,20.00
2018-07-15T04:12:08.846Z,18.20
2018-07-15T04:13:09.086Z,18.40
2018-07-15T04:14:09.327Z,18.30
2018-07-15T04:15:09.570Z,17.30
2018-07-15T04:16:09.814Z,17.20
2018-07-15T04:17:10.056Z,18.20
2018-07-15T04:18:10.299Z,17.60
2018-07-15T04:19:10.542Z,18.50
2018-07-15T04:20:10.785Z,17.00
2018-07-15T04:21:11.026Z,17.10
2018-07-15T04:22:11.269Z,17.40
2018-07-15T04:23:11.511Z,17.00
2018-07-15T04:24:11.756Z,16.20
2018-07-15T04:25:11.997Z,16.80
2018-07-15T04:26:12.239Z,16.50
2018-07-15T04:27:12.482Z,15.70
2018-07-15T04:28:12.781Z,17.30
2018-07-15T04:29:12.967Z,16.40
2018-07-15T04:30:13.210Z,16.40
2018-07-15T04:31:13.451Z,17.20
2018-07-15T04:32:13.697Z,18.40
2018-07-15T04:33:13.937Z,16.20
2018-07-15T04:34:14.192Z,15.40
2018-07-15T04:35:14.423Z,15.60
2018-07-15T04:36:14.671Z,15.30
2018-07-15T04:37:14.915Z,16.50
2018-07-15T04:38:15.154Z,15.70
2018-07-15T04:39:15.396Z,15.70
2018-07-15T04:40:15.638Z,15.70
2018-07-15T04:41:15.882Z,15.30
2018-07-15T04:42:16.124Z,15.40
2018-07-15T04:43:16.366Z,14.80
2018-07-15T04:44:16.608Z,14.80
2018-07-15T04:45:16.851Z,15.20
2018-07-15T04:46:17.093Z,15.50
2018-07-15T04:47:17.336Z,15.10
2018-07-15T04:48:17.578Z,15.20
2018-07-15T04:49:17.843Z,14.30
2018-07-15T04:50:18.066Z,13.60
2018-07-15T04:51:18.309Z,14.60
2018-07-15T04:52:18.553Z,13.80
2018-07-15T04:53:18.795Z,13.20
2018-07-15T04:54:19.039Z,13.30
2018-07-15T04:55:19.285Z,13.70
2018-07-15T04:56:19.527Z,13.60
2018-07-15T04:57:19.770Z,13.50
2018-07-15T04:58:20.011Z,16.50
2018-07-15T04:59:20.254Z,14.10
2018-07-15T05:00:20.497Z,14.70
2018-07-15T05:01:20.745Z,14.00
2018-07-15T05:02:20.987Z,13.90
2018-07-15T05:03:21.226Z,14.30
2018-07-15T05:04:21.473Z,13.70
2018-07-15T05:05:21.717Z,13.80
2018-07-15T05:06:21.963Z,13.70
2018-07-15T05:07:22.202Z,13.60
2018-07-15T05:08:22.445Z,12.60
2018-07-15T05:09:22.689Z,12.80
2018-07-15T05:10:22.932Z,12.10
2018-07-15T05:11:23.233Z,11.80
2018-07-15T05:12:23.422Z,12.40
2018-07-15T05:13:23.666Z,11.60
2018-07-15T05:14:23.911Z,11.00
2018-07-15T05:15:24.154Z,10.00
2018-07-15T05:16:24.399Z,10.10
2018-07-15T05:17:24.646Z,11.10
2018-07-15T05:18:24.896Z,11.00
2018-07-15T05:19:25.130Z,9.90
2018-07-15T05:20:25.375Z,10.00
2018-07-15T05:21:25.620Z,10.60
2018-07-15T05:22:25.864Z,8.80
2018-07-15T05:23:26.105Z,8.50
2018-07-15T05:24:26.352Z,8.80
2018-07-15T05:25:26.594Z,8.60
2018-07-15T05:26:26.838Z,8.30
2018-07-15T05:27:27.080Z,11.30
2018-07-15T05:28:27.324Z,9.20
2018-07-15T05:29:27.569Z,8.10
2018-07-15T05:30:27.812Z,8.40
2018-07-15T05:31:28.056Z,8.30
2018-07-15T05:32:28.301Z,8.50
2018-07-15T05:33:28.548Z,8.40
2018-07-15T05:34:28.792Z,8.60
2018-07-15T05:35:29.037Z,7.90
2018-07-15T05:36:29.281Z,9.50
2018-07-15T05:37:29.525Z,7.90
2018-07-15T05:38:29.772Z,8.40
2018-07-15T05:39:30.013Z,8.50
2018-07-15T05:40:30.258Z,7.70
2018-07-15T05:41:30.502Z,8.00
2018-07-15T05:42:30.744Z,8.10
2018-07-15T05:43:30.987Z,8.30
2018-07-15T05:44:31.235Z,8.30
2018-07-15T05:45:31.474Z,8.20
2018-07-15T05:46:31.716Z,8.60
2018-07-15T05:47:31.961Z,10.90
2018-07-15T05:48:32.205Z,8.60
2018-07-15T05:49:32.449Z,10.00
2018-07-15T05:50:32.694Z,7.70
2018-07-15T05:51:32.939Z,8.10
2018-07-15T05:52:33.185Z,8.30
2018-07-15T05:53:33.428Z,8.10
2018-07-15T05:54:33.672Z,8.30
2018-07-15T05:55:33.919Z,8.80
2018-07-15T05:56:34.161Z,8.40
2018-07-15T05:57:34.405Z,8.20
2018-07-15T05:58:34.649Z,7.80
2018-07-15T05:59:34.892Z,8.70
2018-07-15T06:00:35.136Z,8.50
2018-07-15T06:01:35.380Z,8.50
2018-07-15T06:02:35.624Z,8.30
2018-07-15T06:03:35.892Z,7.90
2018-07-15T06:04:36.115Z,8.20
2018-07-15T06:05:36.360Z,7.40
2018-07-15T06:06:36.603Z,7.80
2018-07-15T06:07:36.848Z,7.50
2018-07-15T06:08:37.092Z,9.80
2018-07-15T06:09:37.341Z,7.80
2018-07-15T06:10:37.592Z,9.20
2018-07-15T06:11:37.826Z,8.20
2018-07-15T06:12:38.071Z,7.70
2018-07-15T06:13:38.316Z,7.50
2018-07-15T06:14:38.560Z,7.60
2018-07-15T06:15:38.808Z,7.40
2018-07-15T06:16:39.055Z,8.90
2018-07-15T06:17:39.300Z,7.20
2018-07-15T06:18:39.547Z,7.70
2018-07-15T06:19:39.788Z,8.90
2018-07-15T06:20:40.035Z,7.40
2018-07-15T06:21:40.276Z,7.40
2018-07-15T06:22:40.584Z,6.80
2018-07-15T06:23:40.766Z,7.80
2018-07-15T06:24:41.010Z,8.90
2018-07-15T06:25:41.255Z,8.10
2018-07-15T06:26:41.499Z,7.00
2018-07-15T06:27:41.745Z,7.60
2018-07-15T06:28:41.990Z,6.80
2018-07-15T06:29:42.234Z,7.30
2018-07-15T06:30:42.479Z,9.20
2018-07-15T06:31:42.734Z,8.10
2018-07-15T06:32:42.970Z,8.20
2018-07-15T06:33:43.214Z,6.80
2018-07-15T06:34:43.459Z,7.60
2018-07-15T06:35:43.703Z,9.70
2018-07-15T06:36:43.948Z,6.70
2018-07-15T06:37:44.194Z,7.60
2018-07-15T06:38:44.440Z,7.30
2018-07-15T06:39:44.684Z,7.10
2018-07-15T06:40:44.927Z,7.00
2018-07-15T06:41:45.173Z,7.30
2018-07-15T06:42:45.420Z,7.40
2018-07-15T06:43:45.665Z,6.40
2018-07-15T06:44:45.911Z,8.20
2018-07-15T06:45:46.156Z,7.00
2018-07-15T06:46:46.405Z,6.90
2018-07-15T06:47:46.648Z,6.70
2018-07-15T06:48:46.893Z,7.10
2018-07-15T06:49:47.139Z,6.90
2018-07-15T06:50:47.389Z,6.30
2018-07-15T06:51:47.629Z,6.70
2018-07-15T06:52:47.874Z,6.90
2018-07-15T06:53:48.121Z,6.90
2018-07-15T06:54:48.365Z,6.20
2018-07-15T06:55:48.639Z,6.70
2018-07-15T06:56:48.856Z,6.50
2018-07-15T06:57:49.104Z,6.70
2018-07-15T06:58:49.349Z,6.50
2018-07-15T06:59:49.595Z,6.40
2018-07-15T07:00:49.843Z,8.90
2018-07-15T07:01:50.088Z,7.30
2018-07-15T07:02:50.336Z,6.50
2018-07-15T07:03:50.583Z,7.50
2018-07-15T07:04:50.826Z,6.40
2018-07-15T07:05:51.073Z,7.90
2018-07-15T07:06:51.318Z,6.60
2018-07-15T07:07:51.565Z,10.00
2018-07-15T07:08:51.810Z,6.70
2018-07-15T07:09:52.055Z,6.10
2018-07-15T07:10:52.300Z,6.20
2018-07-15T07:11:52.547Z,6.80
2018-07-15T07:12:52.796Z,7.00
2018-07-15T07:13:53.038Z,6.30
2018-07-15T07:14:53.284Z,5.90
2018-07-15T07:15:53.529Z,7.00
2018-07-15T07:16:53.776Z,5.40
2018-07-15T07:17:54.021Z,6.30
2018-07-15T07:18:54.271Z,7.30
2018-07-15T07:19:54.517Z,7.80
2018-07-15T07:20:54.767Z,7.30
2018-07-15T07:21:55.020Z,6.50
2018-07-15T07:22:55.270Z,5.60
2018-07-15T07:23:55.511Z,7.60
2018-07-15T07:24:55.758Z,7.70
2018-07-15T07:25:56.007Z,5.70
2018-07-15T07:26:56.255Z,6.00
2018-07-15T07:27:56.501Z,6.30
2018-07-15T07:28:56.789Z,5.40
2018-07-15T07:29:56.995Z,5.40
2018-07-15T07:30:57.240Z,5.70
2018-07-15T07:31:57.494Z,7.00
2018-07-15T07:32:57.731Z,5.70
2018-07-15T07:33:57.981Z,7.00
2018-07-15T07:34:58.228Z,6.40
2018-07-15T07:35:58.478Z,6.00
2018-07-15T07:36:58.727Z,5.40
2018-07-15T07:37:58.976Z,5.00
2018-07-15T07:38:59.224Z,5.10
2018-07-15T07:39:59.474Z,4.90
2018-07-15T07:40:59.724Z,5.20
2018-07-15T07:41:59.972Z,5.60
2018-07-15T07:43:00.221Z,4.90
2018-07-15T07:44:00.470Z,5.10
2018-07-15T07:45:00.721Z,4.90
2018-07-15T07:46:00.971Z,6.40
2018-07-15T07:47:01.268Z,4.50
2018-07-15T07:48:01.490Z,5.30
2018-07-15T07:49:01.712Z,5.20
2018-07-15T07:50:01.972Z,4.50
2018-07-15T07:51:02.223Z,6.70
2018-07-15T07:52:02.480Z,5.90
2018-07-15T07:53:02.728Z,4.10
2018-07-15T07:54:02.980Z,4.90
2018-07-15T07:55:03.231Z,7.30
2018-07-15T07:56:03.482Z,4.50
2018-07-15T07:57:03.734Z,4.00
2018-07-15T07:58:03.984Z,7.30
2018-07-15T07:59:04.235Z,4.50
2018-07-15T08:00:04.489Z,6.00
2018-07-15T08:01:04.743Z,5.00
2018-07-15T08:02:05.087Z,5.60
2018-07-15T08:03:05.245Z,4.90
2018-07-15T08:04:05.501Z,6.40
2018-07-15T08:05:05.750Z,5.90
2018-07-15T08:06:06.010Z,4.90
2018-07-15T08:07:06.255Z,5.80
2018-07-15T08:08:06.510Z,5.00
2018-07-15T08:09:06.759Z,4.40
2018-07-15T08:10:07.011Z,4.70
2018-07-15T08:11:07.263Z,4.40
2018-07-15T08:12:07.514Z,5.20
2018-07-15T08:13:07.769Z,6.00
2018-07-15T08:14:08.021Z,5.20
2018-07-15T08:15:08.283Z,4.40
2018-07-15T08:16:08.527Z,4.70
2018-07-15T08:17:08.782Z,4.50
2018-07-15T08:18:09.036Z,4.50
2018-07-15T08:19:09.292Z,5.80
2018-07-15T08:20:09.542Z,6.80
2018-07-15T08:21:09.796Z,4.40
2018-07-15T08:22:10.048Z,4.20
2018-07-15T08:23:10.304Z,8.50
2018-07-15T08:24:10.558Z,4.60
2018-07-15T08:25:10.810Z,4.20
2018-07-15T08:26:11.065Z,3.80
2018-07-15T08:27:11.321Z,4.00
2018-07-15T08:28:11.634Z,4.10
2018-07-15T08:29:11.826Z,6.10
2018-07-15T08:30:12.080Z,7.60
2018-07-15T08:31:12.337Z,4.50
2018-07-15T08:32:12.589Z,4.50
2018-07-15T08:33:12.843Z,4.80
2018-07-15T08:34:13.097Z,7.00
2018-07-15T08:35:13.354Z,4.10
2018-07-15T08:36:13.610Z,4.50
2018-07-15T08:37:13.859Z,4.30
2018-07-15T08:38:14.113Z,6.10
2018-07-15T08:39:14.366Z,5.90
2018-07-15T08:40:14.622Z,6.90
2018-07-15T08:41:14.875Z,4.10
2018-07-15T08:42:15.129Z,5.70
2018-07-15T08:43:15.383Z,6.40
2018-07-15T08:44:15.637Z,4.80
2018-07-15T08:45:15.891Z,5.00
2018-07-15T08:46:16.145Z,4.10
2018-07-15T08:47:16.399Z,3.80
2018-07-15T08:48:16.657Z,3.70
2018-07-15T08:49:16.913Z,4.10
2018-07-15T08:50:17.164Z,4.80
2018-07-15T08:51:17.419Z,5.70
2018-07-15T08:52:17.674Z,7.10
2018-07-15T08:53:17.927Z,4.30
2018-07-15T08:54:18.182Z,4.30
2018-07-15T08:55:18.434Z,6.10
2018-07-15T08:56:18.692Z,4.20
2018-07-15T08:57:18.944Z,6.20
2018-07-15T08:58:19.197Z,4.50
2018-07-15T08:59:19.455Z,4.30
2018-07-15T09:00:19.710Z,5.00
2018-07-15T09:01:19.962Z,9.60
2018-07-15T09:02:20.218Z,6.90
2018-07-15T09:03:20.525Z,3.90
2018-07-15T09:04:20.727Z,5.40
2018-07-15T09:05:20.982Z,4.70
2018-07-15T09:06:21.235Z,4.40
2018-07-15T09:07:21.491Z,5.40
2018-07-15T09:08:21.745Z,5.50
2018-07-15T09:09:21.999Z,6.10
2018-07-15T09:10:22.255Z,4.80
2018-07-15T09:11:22.509Z,5.80
2018-07-15T09:12:22.762Z,5.40
2018-07-15T09:13:23.019Z,3.80
2018-07-15T09:14:23.274Z,5.30
2018-07-15T09:15:23.530Z,3.80
2018-07-15T09:16:23.785Z,4.60
2018-07-15T09:17:24.040Z,4.50
2018-07-15T09:18:24.309Z,3.80
2018-07-15T09:19:24.551Z,3.70
2018-07-15T09:20:24.808Z,4.00
2018-07-15T09:21:25.066Z,3.90
2018-07-15T09:22:25.320Z,5.80
2018-07-15T09:23:25.573Z,4.10
2018-07-15T09:24:25.825Z,4.60
2018-07-15T09:25:26.082Z,4.30
2018-07-15T09:26:26.336Z,4.30
2018-07-15T09:27:26.591Z,3.20
2018-07-15T09:28:26.847Z,4.20
2018-07-15T09:29:27.103Z,3.60
2018-07-15T09:30:27.358Z,3.80
2018-07-15T09:31:27.614Z,6.50
2018-07-15T09:32:27.872Z,4.20
2018-07-15T09:33:28.127Z,8.30
2018-07-15T09:34:28.385Z,4.60
2018-07-15T09:35:28.646Z,3.60
2018-07-15T09:36:28.897Z,3.90
2018-07-15T09:37:29.151Z,4.10
2018-07-15T09:38:29.404Z,4.00
2018-07-15T09:39:29.659Z,5.30
2018-07-15T09:40:29.914Z,5.30
2018-07-15T09:41:30.170Z,4.20
2018-07-15T09:42:30.427Z,3.60
2018-07-15T09:43:30.679Z,3.70
2018-07-15T09:44:30.934Z,6.00
2018-07-15T09:45:31.189Z,4.90
2018-07-15T09:46:31.443Z,9.50
2018-07-15T09:47:31.697Z,4.10
2018-07-15T09:48:31.952Z,3.90
2018-07-15T09:49:32.206Z,4.20
2018-07-15T09:50:32.462Z,3.80
2018-07-15T09:51:32.716Z,4.10
2018-07-15T09:52:32.971Z,5.10
2018-07-15T09:53:33.227Z,4.50
2018-07-15T09:54:33.490Z,4.00
2018-07-15T09:55:33.736Z,3.70
2018-07-15T09:56:33.989Z,5.90
2018-07-15T09:57:34.247Z,3.60
2018-07-15T09:58:34.500Z,2.80
2018-07-15T09:59:34.754Z,4.10
2018-07-15T10:00:35.011Z,2.90
2018-07-15T10:01:35.267Z,4.70
2018-07-15T10:02:35.522Z,3.60
2018-07-15T10:03:35.776Z,3.70
2018-07-15T10:04:36.052Z,3.40
2018-07-15T10:05:36.285Z,2.40
2018-07-15T10:06:36.541Z,2.60
2018-07-15T10:07:36.826Z,3.00
2018-07-15T10:08:37.053Z,3.50
2018-07-15T10:09:37.309Z,3.60
2018-07-15T10:10:37.564Z,3.10
2018-07-15T10:11:37.820Z,2.60
2018-07-15T10:12:38.077Z,4.70
2018-07-15T10:13:38.333Z,2.50
2018-07-15T10:14:38.589Z,2.90
2018-07-15T10:15:38.852Z,4.10
2018-07-15T10:16:39.103Z,4.30
2018-07-15T10:17:39.360Z,2.70
2018-07-15T10:18:39.616Z,4.50
2018-07-15T10:19:39.872Z,2.80
2018-07-15T10:20:40.131Z,4.20
2018-07-15T10:21:40.390Z,4.10
2018-07-15T10:22:40.639Z,4.20
2018-07-15T10:23:40.895Z,4.10
2018-07-15T10:24:41.151Z,3.50
2018-07-15T10:25:41.407Z,2.40
2018-07-15T10:26:41.785Z,3.60
2018-07-15T10:27:41.919Z,2.90
2018-07-15T10:28:42.179Z,2.70
2018-07-15T10:29:42.430Z,2.60
2018-07-15T10:30:42.686Z,6.10
2018-07-15T10:31:42.941Z,6.40
2018-07-15T10:32:43.197Z,3.30
2018-07-15T10:33:43.452Z,5.10
2018-07-15T10:34:43.712Z,3.20
2018-07-15T10:35:43.965Z,2.50
2018-07-15T10:36:44.222Z,3.50
2018-07-15T10:37:44.481Z,3.80
2018-07-15T10:38:44.737Z,2.40
2018-07-15T10:39:44.995Z,2.50
2018-07-15T10:40:45.252Z,2.50
2018-07-15T10:41:45.510Z,5.80
2018-07-15T10:42:45.767Z,2.90
2018-07-15T10:43:46.024Z,2.60
2018-07-15T10:44:46.280Z,4.50
2018-07-15T10:45:46.540Z,3.90
2018-07-15T10:46:46.800Z,3.10
2018-07-15T10:47:47.058Z,2.20
2018-07-15T10:48:47.321Z,2.00
2018-07-15T10:49:47.579Z,2.10
2018-07-15T10:50:47.837Z,4.70
2018-07-15T10:51:48.093Z,2.80
2018-07-15T10:52:48.356Z,2.40
2018-07-15T10:53:48.609Z,3.60
2018-07-15T10:54:48.866Z,2.30
2018-07-15T10:55:49.123Z,1.90
2018-07-15T10:56:49.382Z,1.90
2018-07-15T10:57:49.640Z,3.90
2018-07-15T10:58:49.893Z,1.80
2018-07-15T10:59:50.151Z,2.10
2018-07-15T11:00:50.462Z,2.80
2018-07-15T11:01:50.667Z,1.80
2018-07-15T11:02:50.925Z,8.40
2018-07-15T11:03:51.179Z,2.50
2018-07-15T11:04:51.439Z,7.40
2018-07-15T11:05:51.697Z,2.90
2018-07-15T11:06:51.955Z,2.00
2018-07-15T11:07:52.213Z,2.60
2018-07-15T11:08:52.473Z,1.70
2018-07-15T11:09:52.729Z,1.70
2018-07-15T11:10:52.987Z,2.20
2018-07-15T11:11:53.243Z,2.80
2018-07-15T11:12:53.500Z,1.60
2018-07-15T11:13:53.758Z,2.30
2018-07-15T11:14:54.019Z,1.50
2018-07-15T11:15:54.275Z,2.70
2018-07-15T11:16:54.532Z,2.10
2018-07-15T11:17:54.794Z,1.90
2018-07-15T11:18:55.050Z,2.50
2018-07-15T11:19:55.308Z,2.60
2018-07-15T11:20:55.566Z,3.00
2018-07-15T11:21:55.825Z,1.80
2018-07-15T11:22:56.085Z,2.10
2018-07-15T11:23:56.342Z,1.20
2018-07-15T11:24:56.600Z,1.10
2018-07-15T11:25:56.861Z,1.30
2018-07-15T11:26:57.121Z,2.10
2018-07-15T11:27:57.381Z,2.40
2018-07-15T11:28:57.635Z,2.80
2018-07-15T11:29:57.898Z,1.50
2018-07-15T11:30:58.265Z,2.20
2018-07-15T11:31:58.412Z,1.80
2018-07-15T11:32:58.672Z,1.70
2018-07-15T11:33:58.930Z,1.60
2018-07-15T11:34:59.190Z,1.30
2018-07-15T11:35:59.450Z,3.20
2018-07-15T11:36:59.709Z,3.50
2018-07-15T11:37:59.968Z,4.60
2018-07-15T11:39:00.233Z,2.30
2018-07-15T11:40:00.488Z,1.20
2018-07-15T11:41:00.749Z,1.40
2018-07-15T11:42:01.008Z,1.10
2018-07-15T11:43:01.267Z,1.90
2018-07-15T11:44:01.527Z,1.00
2018-07-15T11:45:01.786Z,2.60
2018-07-15T11:46:02.046Z,2.00
2018-07-15T11:47:02.306Z,1.20
2018-07-15T11:48:02.566Z,1.40
2018-07-15T11:49:02.824Z,2.40
2018-07-15T11:50:03.089Z,2.00
2018-07-15T11:51:03.343Z,1.40
2018-07-15T11:52:03.603Z,1.20
2018-07-15T11:53:03.861Z,1.10
2018-07-15T11:54:04.119Z,1.10
2018-07-15T11:55:04.380Z,1.10
2018-07-15T11:56:04.639Z,4.80
2018-07-15T11:57:04.897Z,2.00
2018-07-15T11:58:05.158Z,1.30
2018-07-15T11:59:05.418Z,2.10
2018-07-15T12:00:05.673Z,0.90
2018-07-15T12:01:05.934Z,1.20
2018-07-15T12:02:06.193Z,3.00
2018-07-15T12:03:06.452Z,1.40
2018-07-15T12:04:06.712Z,1.40
2018-07-15T12:05:06.971Z,2.10
2018-07-15T12:06:07.231Z,1.20
2018-07-15T12:07:07.492Z,2.10
2018-07-15T12:08:07.754Z,2.80
2018-07-15T12:09:08.013Z,1.70
2018-07-15T12:10:08.272Z,1.10
2018-07-15T12:11:08.603Z,2.40
2018-07-15T12:12:08.793Z,1.10
2018-07-15T12:13:09.049Z,1.20
2018-07-15T12:14:09.310Z,1.50
2018-07-15T12:15:09.569Z,1.70
2018-07-15T12:16:09.827Z,1.40
2018-07-15T12:17:10.089Z,1.70
2018-07-15T12:18:10.343Z,2.10
2018-07-15T12:19:10.601Z,1.20
2018-07-15T12:20:10.858Z,2.20
2018-07-15T12:21:11.115Z,1.30
2018-07-15T12:22:11.373Z,1.20
2018-07-15T12:23:11.631Z,1.30
2018-07-15T12:24:11.888Z,1.10
2018-07-15T12:25:12.146Z,1.20
2018-07-15T12:26:12.403Z,1.20
2018-07-15T12:27:12.661Z,1.10
2018-07-15T12:28:12.970Z,1.40
2018-07-15T12:29:13.176Z,1.10
2018-07-15T12:30:13.432Z,3.20
2018-07-15T12:31:13.692Z,2.70
2018-07-15T12:32:13.946Z,1.10
2018-07-15T12:33:14.202Z,1.90
2018-07-15T12:34:14.459Z,1.10
2018-07-15T12:35:14.718Z,1.20
2018-07-15T12:36:14.973Z,1.40
2018-07-15T12:37:15.232Z,2.60
2018-07-15T12:38:15.490Z,1.70
2018-07-15T12:39:15.750Z,1.00
2018-07-15T12:40:16.004Z,2.70
2018-07-15T12:41:16.259Z,1.80
2018-07-15T12:42:16.515Z,1.20
2018-07-15T12:43:16.777Z,1.00
2018-07-15T12:44:17.031Z,1.20
2018-07-15T12:45:17.291Z,1.30
2018-07-15T12:46:17.544Z,2.20
2018-07-15T12:47:17.804Z,1.20
2018-07-15T12:48:18.057Z,1.30
2018-07-15T12:49:18.313Z,1.50
2018-07-15T12:50:18.569Z,2.50
2018-07-15T12:51:18.827Z,1.30
2018-07-15T12:52:19.085Z,1.60
2018-07-15T12:53:19.342Z,1.20
2018-07-15T12:54:19.599Z,1.20
2018-07-15T12:55:19.857Z,2.90
2018-07-15T12:56:20.112Z,3.80
2018-07-15T12:57:20.368Z,3.60
2018-07-15T12:58:20.624Z,2.50
2018-07-15T12:59:20.878Z,1.40
2018-07-15T13:00:21.135Z,2.80
2018-07-15T13:01:21.391Z,1.50
2018-07-15T13:02:21.650Z,8.10
2018-07-15T13:03:21.901Z,4.00
2018-07-15T13:04:22.157Z,1.50
2018-07-15T13:05:22.412Z,3.20
2018-07-15T13:06:22.668Z,2.40
2018-07-15T13:07:22.924Z,2.10
2018-07-15T13:08:23.182Z,3.10
2018-07-15T13:09:23.435Z,1.30
2018-07-15T13:10:23.691Z,2.40